sensor_id;sensor_type;location;lat;lon;timestamp;temperature;humidity
80937;DHT22;70395;51.382;7.074;2024-02-23T00:01:04;8.80;60.50
80937;DHT22;70395;51.382;7.074;2024-02-23T00:03:30;8.80;60.50
80937;DHT22;70395;51.382;7.074;2024-02-23T00:05:58;8.80;60.80
80937;DHT22;70395;51.382;7.074;2024-02-23T00:08:24;8.80;60.90
80937;DHT22;70395;51.382;7.074;2024-02-23T00:10:50;8.80;61.10
80937;DHT22;70395;51.382;7.074;2024-02-23T00:13:16;8.70;61.10
80937;DHT22;70395;51.382;7.074;2024-02-23T00:15:41;8.70;61.50
80937;DHT22;70395;51.382;7.074;2024-02-23T00:18:09;8.70;62.20
80937;DHT22;70395;51.382;7.074;2024-02-23T00:20:35;8.70;62.40
80937;DHT22;70395;51.382;7.074;2024-02-23T00:23:02;8.60;62.90
80937;DHT22;70395;51.382;7.074;2024-02-23T00:25:28;8.60;63.20
80937;DHT22;70395;51.382;7.074;2024-02-23T00:27:54;8.60;63.20
80937;DHT22;70395;51.382;7.074;2024-02-23T00:30:19;8.50;63.30
80937;DHT22;70395;51.382;7.074;2024-02-23T00:32:45;8.50;63.60
80937;DHT22;70395;51.382;7.074;2024-02-23T00:35:11;8.50;63.80
80937;DHT22;70395;51.382;7.074;2024-02-23T00:37:37;8.50;63.70
80937;DHT22;70395;51.382;7.074;2024-02-23T00:40:04;8.50;63.90
80937;DHT22;70395;51.382;7.074;2024-02-23T00:42:31;8.50;63.90
80937;DHT22;70395;51.382;7.074;2024-02-23T00:44:57;8.50;63.90
80937;DHT22;70395;51.382;7.074;2024-02-23T00:47:23;8.40;63.60
80937;DHT22;70395;51.382;7.074;2024-02-23T00:49:48;8.40;63.60
80937;DHT22;70395;51.382;7.074;2024-02-23T00:52:15;8.40;63.50
80937;DHT22;70395;51.382;7.074;2024-02-23T00:54:41;8.40;63.60
80937;DHT22;70395;51.382;7.074;2024-02-23T00:57:07;8.40;64.20
80937;DHT22;70395;51.382;7.074;2024-02-23T00:59:33;8.40;63.50
80937;DHT22;70395;51.382;7.074;2024-02-23T01:01:59;8.40;63.50
80937;DHT22;70395;51.382;7.074;2024-02-23T01:04:25;8.40;63.00
80937;DHT22;70395;51.382;7.074;2024-02-23T01:06:51;8.40;62.70
80937;DHT22;70395;51.382;7.074;2024-02-23T01:09:17;8.40;62.70
80937;DHT22;70395;51.382;7.074;2024-02-23T01:11:47;8.40;62.30
80937;DHT22;70395;51.382;7.074;2024-02-23T01:14:13;8.40;62.30
80937;DHT22;70395;51.382;7.074;2024-02-23T01:16:39;8.40;62.20
80937;DHT22;70395;51.382;7.074;2024-02-23T01:19:05;8.30;62.00
80937;DHT22;70395;51.382;7.074;2024-02-23T01:21:31;8.40;62.20
80937;DHT22;70395;51.382;7.074;2024-02-23T01:23:56;8.30;61.80
80937;DHT22;70395;51.382;7.074;2024-02-23T01:26:23;8.30;61.80
80937;DHT22;70395;51.382;7.074;2024-02-23T01:28:49;8.20;61.40
80937;DHT22;70395;51.382;7.074;2024-02-23T01:31:15;8.20;61.70
80937;DHT22;70395;51.382;7.074;2024-02-23T01:33:41;8.10;61.80
80937;DHT22;70395;51.382;7.074;2024-02-23T01:36:07;8.10;62.00
80937;DHT22;70395;51.382;7.074;2024-02-23T01:38:34;8.00;62.00
80937;DHT22;70395;51.382;7.074;2024-02-23T01:41:00;8.00;62.30
80937;DHT22;70395;51.382;7.074;2024-02-23T01:43:26;8.00;62.70
80937;DHT22;70395;51.382;7.074;2024-02-23T01:45:53;8.00;62.80
80937;DHT22;70395;51.382;7.074;2024-02-23T01:48:20;8.00;63.10
80937;DHT22;70395;51.382;7.074;2024-02-23T01:50:47;8.00;63.10
80937;DHT22;70395;51.382;7.074;2024-02-23T01:53:13;8.10;63.30
80937;DHT22;70395;51.382;7.074;2024-02-23T01:55:43;8.10;63.00
80937;DHT22;70395;51.382;7.074;2024-02-23T01:58:11;8.10;62.90
80937;DHT22;70395;51.382;7.074;2024-02-23T02:00:37;8.10;62.50
80937;DHT22;70395;51.382;7.074;2024-02-23T02:03:03;8.10;62.70
80937;DHT22;70395;51.382;7.074;2024-02-23T02:05:30;8.20;62.50
80937;DHT22;70395;51.382;7.074;2024-02-23T02:07:56;8.20;62.20
80937;DHT22;70395;51.382;7.074;2024-02-23T02:10:25;8.20;62.40
80937;DHT22;70395;51.382;7.074;2024-02-23T02:12:52;8.20;62.30
80937;DHT22;70395;51.382;7.074;2024-02-23T02:15:18;8.30;62.40
80937;DHT22;70395;51.382;7.074;2024-02-23T02:17:44;8.30;62.50
80937;DHT22;70395;51.382;7.074;2024-02-23T02:20:12;8.30;62.30
80937;DHT22;70395;51.382;7.074;2024-02-23T02:22:39;8.30;62.20
80937;DHT22;70395;51.382;7.074;2024-02-23T02:25:06;8.40;62.20
80937;DHT22;70395;51.382;7.074;2024-02-23T02:27:32;8.40;61.90
80937;DHT22;70395;51.382;7.074;2024-02-23T02:29:58;8.40;61.80
80937;DHT22;70395;51.382;7.074;2024-02-23T02:32:24;8.40;62.10
80937;DHT22;70395;51.382;7.074;2024-02-23T02:34:50;8.40;61.60
80937;DHT22;70395;51.382;7.074;2024-02-23T02:37:16;8.40;61.60
80937;DHT22;70395;51.382;7.074;2024-02-23T02:39:42;8.40;61.80
80937;DHT22;70395;51.382;7.074;2024-02-23T02:42:07;8.40;61.40
80937;DHT22;70395;51.382;7.074;2024-02-23T02:44:33;8.40;61.40
80937;DHT22;70395;51.382;7.074;2024-02-23T02:47:00;8.40;61.10
80937;DHT22;70395;51.382;7.074;2024-02-23T02:49:26;8.40;61.10
80937;DHT22;70395;51.382;7.074;2024-02-23T02:51:52;8.40;60.80
80937;DHT22;70395;51.382;7.074;2024-02-23T02:54:17;8.40;61.20
80937;DHT22;70395;51.382;7.074;2024-02-23T02:56:44;8.40;61.30
80937;DHT22;70395;51.382;7.074;2024-02-23T02:59:12;8.30;60.80
80937;DHT22;70395;51.382;7.074;2024-02-23T03:01:39;8.30;61.10
80937;DHT22;70395;51.382;7.074;2024-02-23T03:04:05;8.30;61.20
80937;DHT22;70395;51.382;7.074;2024-02-23T03:06:31;8.30;60.80
80937;DHT22;70395;51.382;7.074;2024-02-23T03:08:57;8.30;60.60
80937;DHT22;70395;51.382;7.074;2024-02-23T03:11:22;8.30;60.60
80937;DHT22;70395;51.382;7.074;2024-02-23T03:13:48;8.30;60.70
80937;DHT22;70395;51.382;7.074;2024-02-23T03:16:18;8.20;61.60
80937;DHT22;70395;51.382;7.074;2024-02-23T03:18:44;8.20;60.80
80937;DHT22;70395;51.382;7.074;2024-02-23T03:21:10;8.20;60.50
80937;DHT22;70395;51.382;7.074;2024-02-23T03:23:36;8.20;60.70
80937;DHT22;70395;51.382;7.074;2024-02-23T03:26:02;8.20;60.90
80937;DHT22;70395;51.382;7.074;2024-02-23T03:28:28;8.20;61.10
80937;DHT22;70395;51.382;7.074;2024-02-23T03:30:54;8.20;60.90
80937;DHT22;70395;51.382;7.074;2024-02-23T03:33:20;8.20;61.00
80937;DHT22;70395;51.382;7.074;2024-02-23T03:35:46;8.20;61.10
80937;DHT22;70395;51.382;7.074;2024-02-23T03:38:12;8.30;61.30
80937;DHT22;70395;51.382;7.074;2024-02-23T03:40:37;8.30;60.90
80937;DHT22;70395;51.382;7.074;2024-02-23T03:43:04;8.30;61.00
80937;DHT22;70395;51.382;7.074;2024-02-23T03:45:31;8.30;61.00
80937;DHT22;70395;51.382;7.074;2024-02-23T03:47:57;8.30;60.30
80937;DHT22;70395;51.382;7.074;2024-02-23T03:50:23;8.30;60.00
80937;DHT22;70395;51.382;7.074;2024-02-23T03:52:49;8.30;60.00
80937;DHT22;70395;51.382;7.074;2024-02-23T03:55:15;8.20;60.30
80937;DHT22;70395;51.382;7.074;2024-02-23T03:57:40;8.30;60.10
80937;DHT22;70395;51.382;7.074;2024-02-23T04:00:07;8.20;60.20
80937;DHT22;70395;51.382;7.074;2024-02-23T04:02:34;8.20;60.20
80937;DHT22;70395;51.382;7.074;2024-02-23T04:05:00;8.20;60.30
80937;DHT22;70395;51.382;7.074;2024-02-23T04:07:26;8.20;60.40
80937;DHT22;70395;51.382;7.074;2024-02-23T04:09:52;8.20;60.50
80937;DHT22;70395;51.382;7.074;2024-02-23T04:12:20;8.20;60.50
80937;DHT22;70395;51.382;7.074;2024-02-23T04:14:47;8.10;60.00
80937;DHT22;70395;51.382;7.074;2024-02-23T04:17:13;8.10;60.00
80937;DHT22;70395;51.382;7.074;2024-02-23T04:19:40;8.10;60.00
80937;DHT22;70395;51.382;7.074;2024-02-23T04:22:08;8.10;60.00
80937;DHT22;70395;51.382;7.074;2024-02-23T04:24:39;8.10;59.70
80937;DHT22;70395;51.382;7.074;2024-02-23T04:27:08;8.10;60.00
80937;DHT22;70395;51.382;7.074;2024-02-23T04:29:34;8.20;60.10
80937;DHT22;70395;51.382;7.074;2024-02-23T04:32:01;8.20;59.60
80937;DHT22;70395;51.382;7.074;2024-02-23T04:34:28;8.20;59.50
80937;DHT22;70395;51.382;7.074;2024-02-23T04:36:54;8.20;59.40
80937;DHT22;70395;51.382;7.074;2024-02-23T04:39:21;8.20;59.80
80937;DHT22;70395;51.382;7.074;2024-02-23T04:41:47;8.20;59.50
80937;DHT22;70395;51.382;7.074;2024-02-23T04:44:13;8.20;59.40
80937;DHT22;70395;51.382;7.074;2024-02-23T04:46:39;8.30;59.30
80937;DHT22;70395;51.382;7.074;2024-02-23T04:49:04;8.20;59.50
80937;DHT22;70395;51.382;7.074;2024-02-23T04:51:30;8.30;59.30
80937;DHT22;70395;51.382;7.074;2024-02-23T04:53:56;8.30;59.60
80937;DHT22;70395;51.382;7.074;2024-02-23T04:56:22;8.30;59.40
80937;DHT22;70395;51.382;7.074;2024-02-23T04:58:47;8.30;59.40
80937;DHT22;70395;51.382;7.074;2024-02-23T05:01:13;8.30;59.00
80937;DHT22;70395;51.382;7.074;2024-02-23T05:03:39;8.30;58.60
80937;DHT22;70395;51.382;7.074;2024-02-23T05:06:05;8.40;59.00
80937;DHT22;70395;51.382;7.074;2024-02-23T05:08:31;8.40;59.00
80937;DHT22;70395;51.382;7.074;2024-02-23T05:10:57;8.40;59.10
80937;DHT22;70395;51.382;7.074;2024-02-23T05:13:23;8.40;58.80
80937;DHT22;70395;51.382;7.074;2024-02-23T05:15:50;8.40;58.60
80937;DHT22;70395;51.382;7.074;2024-02-23T05:18:16;8.40;58.60
80937;DHT22;70395;51.382;7.074;2024-02-23T05:20:42;8.40;59.10
80937;DHT22;70395;51.382;7.074;2024-02-23T05:23:08;8.30;59.10
80937;DHT22;70395;51.382;7.074;2024-02-23T05:25:34;8.40;59.10
80937;DHT22;70395;51.382;7.074;2024-02-23T05:28:00;8.40;58.90
80937;DHT22;70395;51.382;7.074;2024-02-23T05:30:26;8.40;59.10
80937;DHT22;70395;51.382;7.074;2024-02-23T05:32:53;8.40;58.90
80937;DHT22;70395;51.382;7.074;2024-02-23T05:35:19;8.40;58.70
80937;DHT22;70395;51.382;7.074;2024-02-23T05:37:44;8.40;58.60
80937;DHT22;70395;51.382;7.074;2024-02-23T05:40:10;8.40;58.60
80937;DHT22;70395;51.382;7.074;2024-02-23T05:42:39;8.40;58.70
80937;DHT22;70395;51.382;7.074;2024-02-23T05:45:07;8.40;58.70
80937;DHT22;70395;51.382;7.074;2024-02-23T05:47:37;8.40;58.60
80937;DHT22;70395;51.382;7.074;2024-02-23T05:50:04;8.40;58.60
80937;DHT22;70395;51.382;7.074;2024-02-23T05:52:32;8.40;58.60
80937;DHT22;70395;51.382;7.074;2024-02-23T05:54:58;8.40;58.70
80937;DHT22;70395;51.382;7.074;2024-02-23T05:57:26;8.30;58.20
80937;DHT22;70395;51.382;7.074;2024-02-23T05:59:53;8.30;58.20
80937;DHT22;70395;51.382;7.074;2024-02-23T06:02:21;8.20;58.30
80937;DHT22;70395;51.382;7.074;2024-02-23T06:04:47;8.20;58.40
80937;DHT22;70395;51.382;7.074;2024-02-23T06:07:14;8.20;58.50
80937;DHT22;70395;51.382;7.074;2024-02-23T06:09:43;8.10;58.40
80937;DHT22;70395;51.382;7.074;2024-02-23T06:12:09;8.10;58.40
80937;DHT22;70395;51.382;7.074;2024-02-23T06:14:35;8.10;58.60
80937;DHT22;70395;51.382;7.074;2024-02-23T06:17:02;8.00;58.50
80937;DHT22;70395;51.382;7.074;2024-02-23T06:19:28;8.00;58.60
80937;DHT22;70395;51.382;7.074;2024-02-23T06:21:54;8.00;58.80
80937;DHT22;70395;51.382;7.074;2024-02-23T06:24:20;8.00;58.80
80937;DHT22;70395;51.382;7.074;2024-02-23T06:26:46;8.00;57.90
80937;DHT22;70395;51.382;7.074;2024-02-23T06:29:14;8.00;58.40
80937;DHT22;70395;51.382;7.074;2024-02-23T06:31:41;8.10;58.30
80937;DHT22;70395;51.382;7.074;2024-02-23T06:34:07;8.10;58.70
80937;DHT22;70395;51.382;7.074;2024-02-23T06:36:33;8.20;58.40
80937;DHT22;70395;51.382;7.074;2024-02-23T06:38:59;8.20;58.00
80937;DHT22;70395;51.382;7.074;2024-02-23T06:41:25;8.20;58.20
80937;DHT22;70395;51.382;7.074;2024-02-23T06:43:51;8.20;57.80
80937;DHT22;70395;51.382;7.074;2024-02-23T06:46:19;8.20;57.80
80937;DHT22;70395;51.382;7.074;2024-02-23T06:48:46;8.20;57.70
80937;DHT22;70395;51.382;7.074;2024-02-23T06:51:12;8.20;57.80
80937;DHT22;70395;51.382;7.074;2024-02-23T06:53:37;8.20;57.60
80937;DHT22;70395;51.382;7.074;2024-02-23T06:56:03;8.20;57.80
80937;DHT22;70395;51.382;7.074;2024-02-23T06:58:29;8.20;57.50
80937;DHT22;70395;51.382;7.074;2024-02-23T07:00:55;8.20;57.70
80937;DHT22;70395;51.382;7.074;2024-02-23T07:03:21;8.20;57.50
80937;DHT22;70395;51.382;7.074;2024-02-23T07:05:47;8.10;57.60
80937;DHT22;70395;51.382;7.074;2024-02-23T07:08:15;8.10;57.90
80937;DHT22;70395;51.382;7.074;2024-02-23T07:10:41;8.10;57.60
80937;DHT22;70395;51.382;7.074;2024-02-23T07:13:07;8.10;57.60
80937;DHT22;70395;51.382;7.074;2024-02-23T07:15:35;8.10;57.80
80937;DHT22;70395;51.382;7.074;2024-02-23T07:18:01;8.20;57.90
80937;DHT22;70395;51.382;7.074;2024-02-23T07:20:27;8.20;57.80
80937;DHT22;70395;51.382;7.074;2024-02-23T07:22:54;8.30;58.10
80937;DHT22;70395;51.382;7.074;2024-02-23T07:25:20;8.40;58.10
80937;DHT22;70395;51.382;7.074;2024-02-23T07:27:46;8.60;57.90
80937;DHT22;70395;51.382;7.074;2024-02-23T07:30:14;8.80;57.90
80937;DHT22;70395;51.382;7.074;2024-02-23T07:32:42;9.00;57.50
80937;DHT22;70395;51.382;7.074;2024-02-23T07:35:10;9.30;56.80
80937;DHT22;70395;51.382;7.074;2024-02-23T07:37:39;9.50;56.60
80937;DHT22;70395;51.382;7.074;2024-02-23T07:40:05;9.80;56.10
80937;DHT22;70395;51.382;7.074;2024-02-23T07:42:32;10.00;55.10
80937;DHT22;70395;51.382;7.074;2024-02-23T07:44:58;10.30;53.40
80937;DHT22;70395;51.382;7.074;2024-02-23T07:47:24;10.50;54.00
80937;DHT22;70395;51.382;7.074;2024-02-23T07:49:52;10.60;52.70
80937;DHT22;70395;51.382;7.074;2024-02-23T07:52:19;10.70;53.10
80937;DHT22;70395;51.382;7.074;2024-02-23T07:54:45;10.70;52.10
80937;DHT22;70395;51.382;7.074;2024-02-23T07:57:10;10.60;52.70
80937;DHT22;70395;51.382;7.074;2024-02-23T07:59:36;10.60;52.70
80937;DHT22;70395;51.382;7.074;2024-02-23T08:02:02;10.40;52.70
80937;DHT22;70395;51.382;7.074;2024-02-23T08:04:28;10.30;53.10
80937;DHT22;70395;51.382;7.074;2024-02-23T08:06:54;10.20;53.00
80937;DHT22;70395;51.382;7.074;2024-02-23T08:09:20;10.10;53.60
80937;DHT22;70395;51.382;7.074;2024-02-23T08:11:47;10.10;54.40
80937;DHT22;70395;51.382;7.074;2024-02-23T08:14:14;10.20;54.50
80937;DHT22;70395;51.382;7.074;2024-02-23T08:16:40;10.30;53.90
80937;DHT22;70395;51.382;7.074;2024-02-23T08:19:06;10.40;53.90
80937;DHT22;70395;51.382;7.074;2024-02-23T08:21:32;10.60;53.30
80937;DHT22;70395;51.382;7.074;2024-02-23T08:23:58;10.70;53.50
80937;DHT22;70395;51.382;7.074;2024-02-23T08:26:23;10.80;53.30
80937;DHT22;70395;51.382;7.074;2024-02-23T08:28:49;10.90;53.20
80937;DHT22;70395;51.382;7.074;2024-02-23T08:31:15;10.90;52.30
80937;DHT22;70395;51.382;7.074;2024-02-23T08:33:42;10.80;52.10
80937;DHT22;70395;51.382;7.074;2024-02-23T08:36:08;10.70;52.10
80937;DHT22;70395;51.382;7.074;2024-02-23T08:38:33;10.70;52.10
80937;DHT22;70395;51.382;7.074;2024-02-23T08:40:59;10.60;52.50
80937;DHT22;70395;51.382;7.074;2024-02-23T08:43:25;10.50;52.60
80937;DHT22;70395;51.382;7.074;2024-02-23T08:45:51;10.40;52.60
80937;DHT22;70395;51.382;7.074;2024-02-23T08:48:17;10.40;53.10
80937;DHT22;70395;51.382;7.074;2024-02-23T08:50:43;10.40;52.80
80937;DHT22;70395;51.382;7.074;2024-02-23T08:53:09;10.40;53.20
80937;DHT22;70395;51.382;7.074;2024-02-23T08:55:35;10.30;52.90
80937;DHT22;70395;51.382;7.074;2024-02-23T08:58:01;10.30;53.00
80937;DHT22;70395;51.382;7.074;2024-02-23T09:00:27;10.30;53.30
80937;DHT22;70395;51.382;7.074;2024-02-23T09:02:54;10.30;53.10
80937;DHT22;70395;51.382;7.074;2024-02-23T09:05:20;10.30;53.50
80937;DHT22;70395;51.382;7.074;2024-02-23T09:07:46;10.20;52.80
80937;DHT22;70395;51.382;7.074;2024-02-23T09:10:12;10.20;53.40
80937;DHT22;70395;51.382;7.074;2024-02-23T09:12:38;10.20;53.40
80937;DHT22;70395;51.382;7.074;2024-02-23T09:15:05;10.10;54.30
80937;DHT22;70395;51.382;7.074;2024-02-23T09:17:31;10.10;53.70
80937;DHT22;70395;51.382;7.074;2024-02-23T09:19:57;10.10;53.70
80937;DHT22;70395;51.382;7.074;2024-02-23T09:22:23;10.10;53.40
80937;DHT22;70395;51.382;7.074;2024-02-23T09:24:49;10.10;53.30
80937;DHT22;70395;51.382;7.074;2024-02-23T09:27:15;10.10;53.10
80937;DHT22;70395;51.382;7.074;2024-02-23T09:29:42;10.10;53.10
80937;DHT22;70395;51.382;7.074;2024-02-23T09:32:08;10.10;52.70
80937;DHT22;70395;51.382;7.074;2024-02-23T09:34:34;10.10;53.20
80937;DHT22;70395;51.382;7.074;2024-02-23T09:37:00;10.10;52.70
80937;DHT22;70395;51.382;7.074;2024-02-23T09:39:26;10.10;52.90
80937;DHT22;70395;51.382;7.074;2024-02-23T09:41:55;10.10;53.10
80937;DHT22;70395;51.382;7.074;2024-02-23T09:44:32;10.10;53.30
80937;DHT22;70395;51.382;7.074;2024-02-23T09:47:03;10.20;53.20
80937;DHT22;70395;51.382;7.074;2024-02-23T09:49:43;10.30;52.50
80937;DHT22;70395;51.382;7.074;2024-02-23T09:52:13;10.40;51.70
80937;DHT22;70395;51.382;7.074;2024-02-23T09:54:39;10.50;53.00
80937;DHT22;70395;51.382;7.074;2024-02-23T09:57:08;10.50;52.90
80937;DHT22;70395;51.382;7.074;2024-02-23T09:59:35;10.60;52.80
80937;DHT22;70395;51.382;7.074;2024-02-23T10:02:03;10.80;53.10
80937;DHT22;70395;51.382;7.074;2024-02-23T10:04:36;11.00;52.70
80937;DHT22;70395;51.382;7.074;2024-02-23T10:07:02;11.20;50.60
80937;DHT22;70395;51.382;7.074;2024-02-23T10:09:30;11.30;50.50
80937;DHT22;70395;51.382;7.074;2024-02-23T10:11:56;11.30;51.00
80937;DHT22;70395;51.382;7.074;2024-02-23T10:14:22;11.30;50.80
80937;DHT22;70395;51.382;7.074;2024-02-23T10:16:48;11.30;50.90
80937;DHT22;70395;51.382;7.074;2024-02-23T10:19:22;11.20;50.50
80937;DHT22;70395;51.382;7.074;2024-02-23T10:21:54;11.20;50.40
80937;DHT22;70395;51.382;7.074;2024-02-23T10:24:20;11.10;50.40
80937;DHT22;70395;51.382;7.074;2024-02-23T10:26:46;11.00;49.80
80937;DHT22;70395;51.382;7.074;2024-02-23T10:29:12;10.90;50.00
80937;DHT22;70395;51.382;7.074;2024-02-23T10:31:38;10.90;51.00
80937;DHT22;70395;51.382;7.074;2024-02-23T10:34:11;10.90;51.00
80937;DHT22;70395;51.382;7.074;2024-02-23T10:36:42;10.80;51.00
80937;DHT22;70395;51.382;7.074;2024-02-23T10:39:09;10.80;51.40
80937;DHT22;70395;51.382;7.074;2024-02-23T10:41:35;10.80;51.40
80937;DHT22;70395;51.382;7.074;2024-02-23T10:44:03;10.70;51.00
80937;DHT22;70395;51.382;7.074;2024-02-23T10:46:32;10.70;50.70
80937;DHT22;70395;51.382;7.074;2024-02-23T10:48:58;10.70;51.20
80937;DHT22;70395;51.382;7.074;2024-02-23T10:51:28;10.80;51.70
80937;DHT22;70395;51.382;7.074;2024-02-23T10:53:55;10.80;51.20
80937;DHT22;70395;51.382;7.074;2024-02-23T10:56:21;10.80;50.80
80937;DHT22;70395;51.382;7.074;2024-02-23T10:58:51;10.80;50.80
80937;DHT22;70395;51.382;7.074;2024-02-23T11:01:19;10.80;51.30
80937;DHT22;70395;51.382;7.074;2024-02-23T11:03:46;10.80;50.60
80937;DHT22;70395;51.382;7.074;2024-02-23T11:06:16;10.90;50.30
80937;DHT22;70395;51.382;7.074;2024-02-23T11:08:49;10.90;50.40
80937;DHT22;70395;51.382;7.074;2024-02-23T11:11:16;11.00;51.00
80937;DHT22;70395;51.382;7.074;2024-02-23T11:13:46;11.00;51.00
80937;DHT22;70395;51.382;7.074;2024-02-23T11:16:22;11.10;51.00
80937;DHT22;70395;51.382;7.074;2024-02-23T11:19:04;11.20;49.80
80937;DHT22;70395;51.382;7.074;2024-02-23T11:21:38;11.10;50.10
80937;DHT22;70395;51.382;7.074;2024-02-23T11:24:05;11.20;50.10
80937;DHT22;70395;51.382;7.074;2024-02-23T11:26:31;11.10;50.80
80937;DHT22;70395;51.382;7.074;2024-02-23T11:28:59;11.10;51.00
80937;DHT22;70395;51.382;7.074;2024-02-23T11:31:35;11.20;50.90
80937;DHT22;70395;51.382;7.074;2024-02-23T11:34:01;11.10;50.20
80937;DHT22;70395;51.382;7.074;2024-02-23T11:36:34;11.10;50.70
80937;DHT22;70395;51.382;7.074;2024-02-23T11:39:02;11.10;51.10
80937;DHT22;70395;51.382;7.074;2024-02-23T11:41:29;11.10;50.80
80937;DHT22;70395;51.382;7.074;2024-02-23T11:43:56;11.10;50.10
80937;DHT22;70395;51.382;7.074;2024-02-23T11:46:23;11.10;50.60
80937;DHT22;70395;51.382;7.074;2024-02-23T11:48:50;11.00;50.80
80937;DHT22;70395;51.382;7.074;2024-02-23T11:51:21;11.00;51.90
80937;DHT22;70395;51.382;7.074;2024-02-23T11:53:51;11.10;51.30
80937;DHT22;70395;51.382;7.074;2024-02-23T11:56:19;11.10;50.90
80937;DHT22;70395;51.382;7.074;2024-02-23T11:58:46;11.00;50.90
80937;DHT22;70395;51.382;7.074;2024-02-23T12:01:12;11.00;51.30
80937;DHT22;70395;51.382;7.074;2024-02-23T12:03:38;10.90;50.30
80937;DHT22;70395;51.382;7.074;2024-02-23T12:06:05;11.00;51.10
80937;DHT22;70395;51.382;7.074;2024-02-23T12:08:33;11.00;51.30
80937;DHT22;70395;51.382;7.074;2024-02-23T12:11:06;11.00;51.50
80937;DHT22;70395;51.382;7.074;2024-02-23T12:13:35;11.10;51.30
80937;DHT22;70395;51.382;7.074;2024-02-23T12:16:01;11.10;51.70
80937;DHT22;70395;51.382;7.074;2024-02-23T12:18:28;11.10;51.80
80937;DHT22;70395;51.382;7.074;2024-02-23T12:21:15;11.10;51.30
80937;DHT22;70395;51.382;7.074;2024-02-23T12:23:42;11.10;51.80
80937;DHT22;70395;51.382;7.074;2024-02-23T12:26:09;11.10;52.00
80937;DHT22;70395;51.382;7.074;2024-02-23T12:28:38;11.10;51.10
80937;DHT22;70395;51.382;7.074;2024-02-23T12:31:06;11.10;51.60
80937;DHT22;70395;51.382;7.074;2024-02-23T12:33:33;11.10;51.30
80937;DHT22;70395;51.382;7.074;2024-02-23T12:36:01;11.10;51.20
80937;DHT22;70395;51.382;7.074;2024-02-23T12:38:28;11.20;51.30
80937;DHT22;70395;51.382;7.074;2024-02-23T12:40:54;11.20;51.10
80937;DHT22;70395;51.382;7.074;2024-02-23T12:43:21;11.20;51.20
80937;DHT22;70395;51.382;7.074;2024-02-23T12:45:58;11.20;51.60
80937;DHT22;70395;51.382;7.074;2024-02-23T12:48:24;11.20;50.90
80937;DHT22;70395;51.382;7.074;2024-02-23T12:50:51;11.20;51.40
80937;DHT22;70395;51.382;7.074;2024-02-23T12:53:39;11.20;51.50
80937;DHT22;70395;51.382;7.074;2024-02-23T12:56:11;11.20;51.50
80937;DHT22;70395;51.382;7.074;2024-02-23T12:58:43;11.20;51.60
80937;DHT22;70395;51.382;7.074;2024-02-23T13:01:10;11.30;51.20
80937;DHT22;70395;51.382;7.074;2024-02-23T13:03:37;11.30;51.60
80937;DHT22;70395;51.382;7.074;2024-02-23T13:06:06;11.30;50.90
80937;DHT22;70395;51.382;7.074;2024-02-23T13:08:33;11.40;52.10
80937;DHT22;70395;51.382;7.074;2024-02-23T13:11:00;11.40;51.50
80937;DHT22;70395;51.382;7.074;2024-02-23T13:13:27;11.40;51.40
80937;DHT22;70395;51.382;7.074;2024-02-23T13:15:53;11.40;51.40
80937;DHT22;70395;51.382;7.074;2024-02-23T13:18:20;11.40;51.90
80937;DHT22;70395;51.382;7.074;2024-02-23T13:20:46;11.50;52.00
80937;DHT22;70395;51.382;7.074;2024-02-23T13:23:12;11.50;51.80
80937;DHT22;70395;51.382;7.074;2024-02-23T13:25:39;11.50;51.30
80937;DHT22;70395;51.382;7.074;2024-02-23T13:28:06;11.50;52.20
80937;DHT22;70395;51.382;7.074;2024-02-23T13:30:34;11.50;53.30
80937;DHT22;70395;51.382;7.074;2024-02-23T13:33:01;11.50;53.40
80937;DHT22;70395;51.382;7.074;2024-02-23T13:35:27;11.40;53.80
80937;DHT22;70395;51.382;7.074;2024-02-23T13:37:53;11.40;54.30
80937;DHT22;70395;51.382;7.074;2024-02-23T13:40:19;11.50;54.40
80937;DHT22;70395;51.382;7.074;2024-02-23T13:42:45;11.50;52.70
80937;DHT22;70395;51.382;7.074;2024-02-23T13:45:15;11.60;53.10
80937;DHT22;70395;51.382;7.074;2024-02-23T13:47:42;11.60;52.80
80937;DHT22;70395;51.382;7.074;2024-02-23T13:50:10;11.70;52.10
80937;DHT22;70395;51.382;7.074;2024-02-23T13:52:37;11.60;51.00
80937;DHT22;70395;51.382;7.074;2024-02-23T13:55:03;11.60;50.60
80937;DHT22;70395;51.382;7.074;2024-02-23T13:57:29;11.60;51.10
80937;DHT22;70395;51.382;7.074;2024-02-23T13:59:54;11.60;50.40
80937;DHT22;70395;51.382;7.074;2024-02-23T14:02:27;11.60;50.00
80937;DHT22;70395;51.382;7.074;2024-02-23T14:05:00;11.70;50.50
80937;DHT22;70395;51.382;7.074;2024-02-23T14:07:28;11.80;50.90
80937;DHT22;70395;51.382;7.074;2024-02-23T14:09:54;11.80;50.90
80937;DHT22;70395;51.382;7.074;2024-02-23T14:12:20;11.90;50.60
80937;DHT22;70395;51.382;7.074;2024-02-23T14:14:46;11.90;50.40
80937;DHT22;70395;51.382;7.074;2024-02-23T14:17:12;11.90;50.10
80937;DHT22;70395;51.382;7.074;2024-02-23T14:19:38;12.00;50.50
80937;DHT22;70395;51.382;7.074;2024-02-23T14:22:04;12.00;50.70
80937;DHT22;70395;51.382;7.074;2024-02-23T14:24:30;12.10;50.20
80937;DHT22;70395;51.382;7.074;2024-02-23T14:26:56;12.10;50.60
80937;DHT22;70395;51.382;7.074;2024-02-23T14:29:22;12.20;49.90
80937;DHT22;70395;51.382;7.074;2024-02-23T14:31:48;12.20;50.00
80937;DHT22;70395;51.382;7.074;2024-02-23T14:34:14;12.30;50.10
80937;DHT22;70395;51.382;7.074;2024-02-23T14:36:40;12.30;50.30
80937;DHT22;70395;51.382;7.074;2024-02-23T14:39:05;12.30;49.30
80937;DHT22;70395;51.382;7.074;2024-02-23T14:41:31;12.30;48.80
80937;DHT22;70395;51.382;7.074;2024-02-23T14:43:57;12.30;48.50
80937;DHT22;70395;51.382;7.074;2024-02-23T14:46:23;12.20;48.70
80937;DHT22;70395;51.382;7.074;2024-02-23T14:48:49;12.20;49.80
80937;DHT22;70395;51.382;7.074;2024-02-23T14:51:15;12.20;50.20
80937;DHT22;70395;51.382;7.074;2024-02-23T14:53:41;12.10;50.30
80937;DHT22;70395;51.382;7.074;2024-02-23T14:56:07;12.10;50.30
80937;DHT22;70395;51.382;7.074;2024-02-23T14:58:33;12.00;51.00
80937;DHT22;70395;51.382;7.074;2024-02-23T15:00:59;12.00;50.30
80937;DHT22;70395;51.382;7.074;2024-02-23T15:03:26;12.00;50.60
80937;DHT22;70395;51.382;7.074;2024-02-23T15:05:52;11.90;50.10
80937;DHT22;70395;51.382;7.074;2024-02-23T15:08:18;12.00;50.70
80937;DHT22;70395;51.382;7.074;2024-02-23T15:10:44;11.90;50.20
80937;DHT22;70395;51.382;7.074;2024-02-23T15:13:10;11.80;49.90
80937;DHT22;70395;51.382;7.074;2024-02-23T15:15:36;11.80;50.40
80937;DHT22;70395;51.382;7.074;2024-02-23T15:18:06;11.70;51.70
80937;DHT22;70395;51.382;7.074;2024-02-23T15:20:32;11.70;52.70
80937;DHT22;70395;51.382;7.074;2024-02-23T15:22:58;11.60;52.80
80937;DHT22;70395;51.382;7.074;2024-02-23T15:25:24;11.50;53.00
80937;DHT22;70395;51.382;7.074;2024-02-23T15:27:49;11.30;53.70
80937;DHT22;70395;51.382;7.074;2024-02-23T15:30:18;11.30;54.00
80937;DHT22;70395;51.382;7.074;2024-02-23T15:32:44;11.20;53.70
80937;DHT22;70395;51.382;7.074;2024-02-23T15:35:09;11.10;53.70